sensor_id;sensor_type;location;lat;lon;timestamp;P1;P2;P0
71097;PMS7003;58754;47.622;-2.986;2023-01-16T00:01:12;2.75;1.50;1.00
71097;PMS7003;58754;47.622;-2.986;2023-01-16T00:03:38;3.00;1.00;0.00
71097;PMS7003;58754;47.622;-2.986;2023-01-16T00:06:04;0.75;0.25;0.00
71097;PMS7003;58754;47.622;-2.986;2023-01-16T00:08:30;4.00;2.00;1.00
71097;PMS7003;58754;47.622;-2.986;2023-01-16T00:10:56;4.75;1.00;0.50
71097;PMS7003;58754;47.622;-2.986;2023-01-16T00:13:21;0.50;0.50;0.25
71097;PMS7003;58754;47.622;-2.986;2023-01-16T00:15:48;1.50;1.50;0.50
71097;PMS7003;58754;47.622;-2.986;2023-01-16T00:18:15;2.50;2.00;0.75
71097;PMS7003;58754;47.622;-2.986;2023-01-16T00:20:41;2.25;1.00;1.00
71097;PMS7003;58754;47.622;-2.986;2023-01-16T00:23:06;5.00;2.00;1.00
71097;PMS7003;58754;47.622;-2.986;2023-01-16T00:25:33;2.50;1.00;1.00
71097;PMS7003;58754;47.622;-2.986;2023-01-16T00:28:03;4.25;1.75;1.00
71097;PMS7003;58754;47.622;-2.986;2023-01-16T00:30:28;3.75;2.00;1.25
71097;PMS7003;58754;47.622;-2.986;2023-01-16T00:32:54;1.00;1.00;0.50
71097;PMS7003;58754;47.622;-2.986;2023-01-16T00:35:20;2.75;1.25;1.00
71097;PMS7003;58754;47.622;-2.986;2023-01-16T00:37:45;4.50;1.50;1.00
71097;PMS7003;58754;47.622;-2.986;2023-01-16T00:40:11;3.50;1.25;1.00
71097;PMS7003;58754;47.622;-2.986;2023-01-16T00:42:37;3.00;1.25;0.75
71097;PMS7003;58754;47.622;-2.986;2023-01-16T00:45:03;3.00;2.00;2.00
71097;PMS7003;58754;47.622;-2.986;2023-01-16T00:47:29;5.25;1.50;0.50
71097;PMS7003;58754;47.622;-2.986;2023-01-16T00:49:54;6.00;1.00;1.00
71097;PMS7003;58754;47.622;-2.986;2023-01-16T00:52:20;2.00;1.00;1.00
71097;PMS7003;58754;47.622;-2.986;2023-01-16T00:54:46;5.75;2.00;1.00
71097;PMS7003;58754;47.622;-2.986;2023-01-16T00:57:11;3.00;2.00;1.00
71097;PMS7003;58754;47.622;-2.986;2023-01-16T00:59:37;2.25;1.25;1.00
71097;PMS7003;58754;47.622;-2.986;2023-01-16T01:02:02;4.00;1.50;1.00
71097;PMS7003;58754;47.622;-2.986;2023-01-16T01:04:28;3.50;1.50;1.00
71097;PMS7003;58754;47.622;-2.986;2023-01-16T01:06:54;2.75;1.00;1.00
71097;PMS7003;58754;47.622;-2.986;2023-01-16T01:09:20;2.50;1.00;1.00
71097;PMS7003;58754;47.622;-2.986;2023-01-16T01:11:45;3.00;1.50;1.00
71097;PMS7003;58754;47.622;-2.986;2023-01-16T01:14:11;1.00;1.00;1.00
71097;PMS7003;58754;47.622;-2.986;2023-01-16T01:16:37;2.25;1.75;0.75
71097;PMS7003;58754;47.622;-2.986;2023-01-16T01:19:02;2.50;1.00;1.00
71097;PMS7003;58754;47.622;-2.986;2023-01-16T01:21:28;4.00;1.00;0.50
71097;PMS7003;58754;47.622;-2.986;2023-01-16T01:23:55;4.25;2.00;1.25
71097;PMS7003;58754;47.622;-2.986;2023-01-16T01:26:21;5.75;2.00;1.00
71097;PMS7003;58754;47.622;-2.986;2023-01-16T01:28:47;3.25;2.00;2.00
71097;PMS7003;58754;47.622;-2.986;2023-01-16T01:31:12;3.00;1.00;1.00
71097;PMS7003;58754;47.622;-2.986;2023-01-16T01:33:39;2.50;2.00;1.00
71097;PMS7003;58754;47.622;-2.986;2023-01-16T01:36:06;2.00;1.00;1.00
71097;PMS7003;58754;47.622;-2.986;2023-01-16T01:38:32;3.75;1.00;0.50
71097;PMS7003;58754;47.622;-2.986;2023-01-16T01:40:58;4.50;2.00;0.50
71097;PMS7003;58754;47.622;-2.986;2023-01-16T01:46:09;2.50;1.00;1.00
71097;PMS7003;58754;47.622;-2.986;2023-01-16T01:49:00;8.25;1.75;1.00
71097;PMS7003;58754;47.622;-2.986;2023-01-16T01:51:41;5.50;2.00;1.25
71097;PMS7003;58754;47.622;-2.986;2023-01-16T01:54:10;3.75;2.25;1.00
71097;PMS7003;58754;47.622;-2.986;2023-01-16T01:56:51;3.50;0.50;0.00
71097;PMS7003;58754;47.622;-2.986;2023-01-16T01:59:25;3.75;1.75;1.00
71097;PMS7003;58754;47.622;-2.986;2023-01-16T02:01:54;4.00;2.00;1.00
71097;PMS7003;58754;47.622;-2.986;2023-01-16T02:04:29;3.50;1.00;0.75
71097;PMS7003;58754;47.622;-2.986;2023-01-16T02:07:02;4.50;2.75;1.50
71097;PMS7003;58754;47.622;-2.986;2023-01-16T02:09:31;2.00;0.50;0.50
71097;PMS7003;58754;47.622;-2.986;2023-01-16T02:12:00;3.75;0.75;0.25
71097;PMS7003;58754;47.622;-2.986;2023-01-16T02:14:35;0.50;0.50;0.25
71097;PMS7003;58754;47.622;-2.986;2023-01-16T02:17:07;3.25;1.50;1.00
71097;PMS7003;58754;47.622;-2.986;2023-01-16T02:34:02;9.00;1.25;1.00
71097;PMS7003;58754;47.622;-2.986;2023-01-16T02:47:22;0.75;0.00;0.00
71097;PMS7003;58754;47.622;-2.986;2023-01-16T02:53:26;3.00;1.00;1.00
71097;PMS7003;58754;47.622;-2.986;2023-01-16T02:55:57;4.75;1.00;1.00
71097;PMS7003;58754;47.622;-2.986;2023-01-16T02:58:32;3.00;1.00;0.25
71097;PMS7003;58754;47.622;-2.986;2023-01-16T03:00:59;1.50;1.50;1.00
71097;PMS7003;58754;47.622;-2.986;2023-01-16T03:03:34;2.00;2.00;1.00
71097;PMS7003;58754;47.622;-2.986;2023-01-16T03:06:19;4.00;1.00;0.00
71097;PMS7003;58754;47.622;-2.986;2023-01-16T03:22:45;2.50;1.75;1.00
71097;PMS7003;58754;47.622;-2.986;2023-01-16T03:25:24;2.25;2.00;0.25
71097;PMS7003;58754;47.622;-2.986;2023-01-16T03:30:39;2.25;2.25;1.00
71097;PMS7003;58754;47.622;-2.986;2023-01-16T03:35:52;1.75;1.00;0.75
71097;PMS7003;58754;47.622;-2.986;2023-01-16T03:38:21;1.50;1.00;1.00
71097;PMS7003;58754;47.622;-2.986;2023-01-16T03:40:49;1.75;1.00;0.75
71097;PMS7003;58754;47.622;-2.986;2023-01-16T03:43:20;2.75;0.25;0.00
71097;PMS7003;58754;47.622;-2.986;2023-01-16T03:45:54;2.00;1.25;1.00
71097;PMS7003;58754;47.622;-2.986;2023-01-16T03:51:18;2.75;0.75;0.25
71097;PMS7003;58754;47.622;-2.986;2023-01-16T03:53:56;0.25;0.00;0.00
71097;PMS7003;58754;47.622;-2.986;2023-01-16T03:56:34;1.50;0.50;0.25
71097;PMS7003;58754;47.622;-2.986;2023-01-16T03:59:05;1.75;0.75;0.00
71097;PMS7003;58754;47.622;-2.986;2023-01-16T04:01:40;2.00;1.00;0.00
71097;PMS7003;58754;47.622;-2.986;2023-01-16T04:04:26;3.00;0.00;0.00
71097;PMS7003;58754;47.622;-2.986;2023-01-16T04:12:22;3.25;0.50;0.50
71097;PMS7003;58754;47.622;-2.986;2023-01-16T04:14:56;2.00;1.00;1.00
71097;PMS7003;58754;47.622;-2.986;2023-01-16T04:17:26;1.00;1.00;1.00
71097;PMS7003;58754;47.622;-2.986;2023-01-16T04:19:53;2.25;0.00;0.00
71097;PMS7003;58754;47.622;-2.986;2023-01-16T04:22:20;2.50;1.00;0.00
71097;PMS7003;58754;47.622;-2.986;2023-01-16T04:24:49;2.00;0.00;0.00
71097;PMS7003;58754;47.622;-2.986;2023-01-16T04:27:17;1.75;0.00;0.00
71097;PMS7003;58754;47.622;-2.986;2023-01-16T04:29:43;1.00;0.25;0.00
71097;PMS7003;58754;47.622;-2.986;2023-01-16T04:32:09;2.75;0.00;0.00
71097;PMS7003;58754;47.622;-2.986;2023-01-16T04:34:35;2.50;0.00;0.00
71097;PMS7003;58754;47.622;-2.986;2023-01-16T04:37:00;4.00;0.00;0.00
71097;PMS7003;58754;47.622;-2.986;2023-01-16T04:39:26;4.00;0.00;0.00
71097;PMS7003;58754;47.622;-2.986;2023-01-16T04:41:52;0.00;0.00;0.00
71097;PMS7003;58754;47.622;-2.986;2023-01-16T04:44:18;5.75;1.00;0.75
71097;PMS7003;58754;47.622;-2.986;2023-01-16T04:46:43;0.50;0.00;0.00
71097;PMS7003;58754;47.622;-2.986;2023-01-16T04:49:09;2.50;0.00;0.00
71097;PMS7003;58754;47.622;-2.986;2023-01-16T04:51:36;2.25;0.00;0.00
71097;PMS7003;58754;47.622;-2.986;2023-01-16T04:54:03;0.00;0.00;0.00
71097;PMS7003;58754;47.622;-2.986;2023-01-16T04:56:32;1.00;0.00;0.00
71097;PMS7003;58754;47.622;-2.986;2023-01-16T04:58:58;2.00;0.00;0.00
71097;PMS7003;58754;47.622;-2.986;2023-01-16T05:01:24;0.00;0.00;0.00
71097;PMS7003;58754;47.622;-2.986;2023-01-16T05:03:49;0.00;0.00;0.00
71097;PMS7003;58754;47.622;-2.986;2023-01-16T05:06:15;3.75;0.75;0.00
71097;PMS7003;58754;47.622;-2.986;2023-01-16T05:08:41;0.00;0.00;0.00
71097;PMS7003;58754;47.622;-2.986;2023-01-16T05:11:07;0.00;0.00;0.00
71097;PMS7003;58754;47.622;-2.986;2023-01-16T05:13:33;0.50;0.00;0.00
71097;PMS7003;58754;47.622;-2.986;2023-01-16T05:15:59;0.00;0.00;0.00
71097;PMS7003;58754;47.622;-2.986;2023-01-16T05:18:25;2.00;0.00;0.00
71097;PMS7003;58754;47.622;-2.986;2023-01-16T05:20:51;0.00;0.00;0.00
71097;PMS7003;58754;47.622;-2.986;2023-01-16T05:23:17;0.00;0.00;0.00
71097;PMS7003;58754;47.622;-2.986;2023-01-16T05:25:43;0.00;0.00;0.00
71097;PMS7003;58754;47.622;-2.986;2023-01-16T05:28:09;0.00;0.00;0.00
71097;PMS7003;58754;47.622;-2.986;2023-01-16T05:30:36;1.00;0.00;0.00
71097;PMS7003;58754;47.622;-2.986;2023-01-16T05:33:02;0.00;0.00;0.00
71097;PMS7003;58754;47.622;-2.986;2023-01-16T05:35:29;0.00;0.00;0.00
71097;PMS7003;58754;47.622;-2.986;2023-01-16T05:37:55;0.00;0.00;0.00
71097;PMS7003;58754;47.622;-2.986;2023-01-16T05:40:21;0.25;0.00;0.00
71097;PMS7003;58754;47.622;-2.986;2023-01-16T05:42:46;0.00;0.00;0.00
71097;PMS7003;58754;47.622;-2.986;2023-01-16T05:45:13;0.00;0.00;0.00
71097;PMS7003;58754;47.622;-2.986;2023-01-16T05:47:39;1.00;0.00;0.00
71097;PMS7003;58754;47.622;-2.986;2023-01-16T05:50:05;0.00;0.00;0.00
71097;PMS7003;58754;47.622;-2.986;2023-01-16T05:52:31;0.00;0.00;0.00
71097;PMS7003;58754;47.622;-2.986;2023-01-16T05:54:57;0.00;0.00;0.00
71097;PMS7003;58754;47.622;-2.986;2023-01-16T05:57:23;0.25;0.00;0.00
71097;PMS7003;58754;47.622;-2.986;2023-01-16T05:59:49;0.00;0.00;0.00
71097;PMS7003;58754;47.622;-2.986;2023-01-16T06:02:16;1.00;0.00;0.00
71097;PMS7003;58754;47.622;-2.986;2023-01-16T06:04:42;0.75;0.00;0.00
71097;PMS7003;58754;47.622;-2.986;2023-01-16T06:07:08;0.00;0.00;0.00
71097;PMS7003;58754;47.622;-2.986;2023-01-16T06:09:33;1.00;0.00;0.00
71097;PMS7003;58754;47.622;-2.986;2023-01-16T06:11:59;0.00;0.00;0.00
71097;PMS7003;58754;47.622;-2.986;2023-01-16T06:14:25;1.00;0.00;0.00
71097;PMS7003;58754;47.622;-2.986;2023-01-16T06:16:50;0.00;0.00;0.00
71097;PMS7003;58754;47.622;-2.986;2023-01-16T06:19:16;0.00;0.00;0.00
71097;PMS7003;58754;47.622;-2.986;2023-01-16T06:21:41;0.50;0.00;0.00
71097;PMS7003;58754;47.622;-2.986;2023-01-16T06:24:08;0.00;0.00;0.00
71097;PMS7003;58754;47.622;-2.986;2023-01-16T06:26:33;0.00;0.00;0.00
71097;PMS7003;58754;47.622;-2.986;2023-01-16T06:28:59;0.00;0.00;0.00
71097;PMS7003;58754;47.622;-2.986;2023-01-16T06:31:25;0.00;0.00;0.00
71097;PMS7003;58754;47.622;-2.986;2023-01-16T06:33:50;0.00;0.00;0.00
71097;PMS7003;58754;47.622;-2.986;2023-01-16T06:36:16;0.00;0.00;0.00
71097;PMS7003;58754;47.622;-2.986;2023-01-16T06:38:42;1.00;0.00;0.00
71097;PMS7003;58754;47.622;-2.986;2023-01-16T06:41:07;0.00;0.00;0.00
71097;PMS7003;58754;47.622;-2.986;2023-01-16T06:43:33;0.75;0.00;0.00
71097;PMS7003;58754;47.622;-2.986;2023-01-16T06:45:59;0.00;0.00;0.00
71097;PMS7003;58754;47.622;-2.986;2023-01-16T06:48:24;0.00;0.00;0.00
71097;PMS7003;58754;47.622;-2.986;2023-01-16T06:50:51;1.00;0.00;0.00
71097;PMS7003;58754;47.622;-2.986;2023-01-16T06:53:18;0.75;0.00;0.00
71097;PMS7003;58754;47.622;-2.986;2023-01-16T06:55:44;0.00;0.00;0.00
71097;PMS7003;58754;47.622;-2.986;2023-01-16T06:58:09;0.25;0.00;0.00
71097;PMS7003;58754;47.622;-2.986;2023-01-16T07:00:36;0.00;0.00;0.00
71097;PMS7003;58754;47.622;-2.986;2023-01-16T07:03:02;1.00;0.00;0.00
71097;PMS7003;58754;47.622;-2.986;2023-01-16T07:05:29;0.00;0.00;0.00
71097;PMS7003;58754;47.622;-2.986;2023-01-16T07:07:56;0.00;0.00;0.00
71097;PMS7003;58754;47.622;-2.986;2023-01-16T07:10:22;0.00;0.00;0.00
71097;PMS7003;58754;47.622;-2.986;2023-01-16T07:12:49;1.00;0.00;0.00
71097;PMS7003;58754;47.622;-2.986;2023-01-16T07:15:16;1.00;0.00;0.00
71097;PMS7003;58754;47.622;-2.986;2023-01-16T07:18:00;0.50;0.00;0.00
71097;PMS7003;58754;47.622;-2.986;2023-01-16T07:20:47;0.00;0.00;0.00
71097;PMS7003;58754;47.622;-2.986;2023-01-16T07:23:35;0.25;0.00;0.00
71097;PMS7003;58754;47.622;-2.986;2023-01-16T07:26:04;2.00;0.00;0.00
71097;PMS7003;58754;47.622;-2.986;2023-01-16T07:28:32;0.00;0.00;0.00
71097;PMS7003;58754;47.622;-2.986;2023-01-16T07:30:58;1.00;0.00;0.00
71097;PMS7003;58754;47.622;-2.986;2023-01-16T07:33:28;0.00;0.00;0.00
71097;PMS7003;58754;47.622;-2.986;2023-01-16T07:35:54;0.00;0.00;0.00
71097;PMS7003;58754;47.622;-2.986;2023-01-16T07:38:20;0.00;0.00;0.00
71097;PMS7003;58754;47.622;-2.986;2023-01-16T07:40:46;0.00;0.00;0.00
71097;PMS7003;58754;47.622;-2.986;2023-01-16T07:43:12;0.00;0.00;0.00
71097;PMS7003;58754;47.622;-2.986;2023-01-16T07:45:37;0.00;0.00;0.00
71097;PMS7003;58754;47.622;-2.986;2023-01-16T07:48:03;0.25;0.00;0.00
71097;PMS7003;58754;47.622;-2.986;2023-01-16T07:50:29;0.75;0.00;0.00
71097;PMS7003;58754;47.622;-2.986;2023-01-16T07:52:55;0.00;0.00;0.00
71097;PMS7003;58754;47.622;-2.986;2023-01-16T07:55:21;0.00;0.00;0.00
71097;PMS7003;58754;47.622;-2.986;2023-01-16T07:57:48;1.00;0.00;0.00
71097;PMS7003;58754;47.622;-2.986;2023-01-16T08:00:14;0.00;0.00;0.00
71097;PMS7003;58754;47.622;-2.986;2023-01-16T08:02:40;0.00;0.00;0.00
71097;PMS7003;58754;47.622;-2.986;2023-01-16T08:05:06;0.00;0.00;0.00
71097;PMS7003;58754;47.622;-2.986;2023-01-16T08:07:33;0.00;0.00;0.00
71097;PMS7003;58754;47.622;-2.986;2023-01-16T08:09:58;0.00;0.00;0.00
71097;PMS7003;58754;47.622;-2.986;2023-01-16T08:12:24;0.00;0.00;0.00
71097;PMS7003;58754;47.622;-2.986;2023-01-16T08:14:50;0.00;0.00;0.00
71097;PMS7003;58754;47.622;-2.986;2023-01-16T08:17:15;0.25;0.00;0.00
71097;PMS7003;58754;47.622;-2.986;2023-01-16T08:19:42;1.00;0.00;0.00
71097;PMS7003;58754;47.622;-2.986;2023-01-16T08:22:08;0.00;0.00;0.00
71097;PMS7003;58754;47.622;-2.986;2023-01-16T08:24:34;0.00;0.00;0.00
71097;PMS7003;58754;47.622;-2.986;2023-01-16T08:26:59;0.00;0.00;0.00
71097;PMS7003;58754;47.622;-2.986;2023-01-16T08:29:25;1.50;0.00;0.00
71097;PMS7003;58754;47.622;-2.986;2023-01-16T08:31:51;0.00;0.00;0.00
71097;PMS7003;58754;47.622;-2.986;2023-01-16T08:34:17;0.00;0.00;0.00
71097;PMS7003;58754;47.622;-2.986;2023-01-16T08:36:43;0.00;0.00;0.00
71097;PMS7003;58754;47.622;-2.986;2023-01-16T08:39:09;0.00;0.00;0.00
71097;PMS7003;58754;47.622;-2.986;2023-01-16T08:41:36;0.75;0.00;0.00
71097;PMS7003;58754;47.622;-2.986;2023-01-16T08:44:20;0.00;0.00;0.00
71097;PMS7003;58754;47.622;-2.986;2023-01-16T08:47:05;0.00;0.00;0.00
71097;PMS7003;58754;47.622;-2.986;2023-01-16T08:49:54;0.00;0.00;0.00
71097;PMS7003;58754;47.622;-2.986;2023-01-16T08:52:39;0.00;0.00;0.00
71097;PMS7003;58754;47.622;-2.986;2023-01-16T08:55:06;1.25;0.00;0.00
71097;PMS7003;58754;47.622;-2.986;2023-01-16T08:57:32;0.00;0.00;0.00
71097;PMS7003;58754;47.622;-2.986;2023-01-16T08:59:58;0.00;0.00;0.00
71097;PMS7003;58754;47.622;-2.986;2023-01-16T09:02:24;0.00;0.00;0.00
71097;PMS7003;58754;47.622;-2.986;2023-01-16T09:04:52;0.00;0.00;0.00
71097;PMS7003;58754;47.622;-2.986;2023-01-16T09:07:19;0.00;0.00;0.00
71097;PMS7003;58754;47.622;-2.986;2023-01-16T09:09:45;2.00;0.00;0.00
71097;PMS7003;58754;47.622;-2.986;2023-01-16T09:12:11;0.00;0.00;0.00
71097;PMS7003;58754;47.622;-2.986;2023-01-16T09:14:56;1.00;0.00;0.00
71097;PMS7003;58754;47.622;-2.986;2023-01-16T09:17:23;1.00;0.00;0.00
71097;PMS7003;58754;47.622;-2.986;2023-01-16T09:19:50;0.25;0.00;0.00
71097;PMS7003;58754;47.622;-2.986;2023-01-16T09:22:16;6.25;1.00;0.00
71097;PMS7003;58754;47.622;-2.986;2023-01-16T09:24:42;0.50;0.00;0.00
71097;PMS7003;58754;47.622;-2.986;2023-01-16T09:27:08;2.00;1.50;1.00
71097;PMS7003;58754;47.622;-2.986;2023-01-16T09:29:34;1.00;1.00;1.00
71097;PMS7003;58754;47.622;-2.986;2023-01-16T09:31:59;3.75;0.75;0.00
71097;PMS7003;58754;47.622;-2.986;2023-01-16T09:34:32;1.00;0.00;0.00
71097;PMS7003;58754;47.622;-2.986;2023-01-16T09:37:00;3.25;1.00;1.00
71097;PMS7003;58754;47.622;-2.986;2023-01-16T09:39:26;1.50;1.00;0.25
71097;PMS7003;58754;47.622;-2.986;2023-01-16T09:42:38;1.25;0.00;0.00
71097;PMS7003;58754;47.622;-2.986;2023-01-16T09:45:12;0.75;0.00;0.00
71097;PMS7003;58754;47.622;-2.986;2023-01-16T09:47:43;0.00;0.00;0.00
71097;PMS7003;58754;47.622;-2.986;2023-01-16T09:50:20;1.00;1.00;0.00
71097;PMS7003;58754;47.622;-2.986;2023-01-16T09:52:49;1.00;1.00;0.00
71097;PMS7003;58754;47.622;-2.986;2023-01-16T09:55:41;3.00;0.00;0.00
71097;PMS7003;58754;47.622;-2.986;2023-01-16T09:58:28;2.00;0.00;0.00
71097;PMS7003;58754;47.622;-2.986;2023-01-16T10:01:14;0.00;0.00;0.00
71097;PMS7003;58754;47.622;-2.986;2023-01-16T10:03:44;0.00;0.00;0.00
71097;PMS7003;58754;47.622;-2.986;2023-01-16T10:11:53;1.00;0.00;0.00
71097;PMS7003;58754;47.622;-2.986;2023-01-16T10:14:32;1.25;1.00;0.00
71097;PMS7003;58754;47.622;-2.986;2023-01-16T10:17:17;0.25;0.25;0.00
71097;PMS7003;58754;47.622;-2.986;2023-01-16T10:28:19;0.00;0.00;0.00
71097;PMS7003;58754;47.622;-2.986;2023-01-16T10:31:08;0.00;0.00;0.00
71097;PMS7003;58754;47.622;-2.986;2023-01-16T10:33:45;0.00;0.00;0.00
71097;PMS7003;58754;47.622;-2.986;2023-01-16T10:36:22;0.00;0.00;0.00
71097;PMS7003;58754;47.622;-2.986;2023-01-16T10:38:55;0.00;0.00;0.00
71097;PMS7003;58754;47.622;-2.986;2023-01-16T10:47:15;0.00;0.00;0.00
71097;PMS7003;58754;47.622;-2.986;2023-01-16T10:50:01;0.25;0.00;0.00
71097;PMS7003;58754;47.622;-2.986;2023-01-16T10:52:27;0.00;0.00;0.00
71097;PMS7003;58754;47.622;-2.986;2023-01-16T10:54:55;0.00;0.00;0.00
71097;PMS7003;58754;47.622;-2.986;2023-01-16T10:57:22;1.00;0.00;0.00
71097;PMS7003;58754;47.622;-2.986;2023-01-16T10:59:52;0.00;0.00;0.00
71097;PMS7003;58754;47.622;-2.986;2023-01-16T11:05:32;0.00;0.00;0.00
71097;PMS7003;58754;47.622;-2.986;2023-01-16T11:08:09;0.00;0.00;0.00
71097;PMS7003;58754;47.622;-2.986;2023-01-16T11:10:45;0.00;0.00;0.00
71097;PMS7003;58754;47.622;-2.986;2023-01-16T11:13:17;2.50;0.00;0.00
71097;PMS7003;58754;47.622;-2.986;2023-01-16T11:19:19;1.00;0.00;0.00
71097;PMS7003;58754;47.622;-2.986;2023-01-16T11:21:57;0.75;0.00;0.00
71097;PMS7003;58754;47.622;-2.986;2023-01-16T11:24:33;0.25;0.00;0.00
71097;PMS7003;58754;47.622;-2.986;2023-01-16T11:27:00;0.00;0.00;0.00
71097;PMS7003;58754;47.622;-2.986;2023-01-16T11:29:35;1.00;0.00;0.00
71097;PMS7003;58754;47.622;-2.986;2023-01-16T11:32:07;0.00;0.00;0.00
71097;PMS7003;58754;47.622;-2.986;2023-01-16T11:34:36;0.00;0.00;0.00
71097;PMS7003;58754;47.622;-2.986;2023-01-16T11:37:09;0.75;0.00;0.00
71097;PMS7003;58754;47.622;-2.986;2023-01-16T11:39:41;0.00;0.00;0.00
71097;PMS7003;58754;47.622;-2.986;2023-01-16T11:42:13;0.00;0.00;0.00
71097;PMS7003;58754;47.622;-2.986;2023-01-16T11:44:58;0.00;0.00;0.00
71097;PMS7003;58754;47.622;-2.986;2023-01-16T11:47:50;1.50;0.00;0.00
71097;PMS7003;58754;47.622;-2.986;2023-01-16T11:50:32;0.00;0.00;0.00
71097;PMS7003;58754;47.622;-2.986;2023-01-16T11:53:02;1.00;0.00;0.00
71097;PMS7003;58754;47.622;-2.986;2023-01-16T11:55:41;0.50;0.00;0.00
71097;PMS7003;58754;47.622;-2.986;2023-01-16T11:58:32;1.50;0.00;0.00
71097;PMS7003;58754;47.622;-2.986;2023-01-16T12:03:48;0.50;0.00;0.00
71097;PMS7003;58754;47.622;-2.986;2023-01-16T12:09:04;0.00;0.00;0.00
71097;PMS7003;58754;47.622;-2.986;2023-01-16T12:11:56;0.00;0.00;0.00
71097;PMS7003;58754;47.622;-2.986;2023-01-16T12:15:24;0.00;0.00;0.00
71097;PMS7003;58754;47.622;-2.986;2023-01-16T12:20:38;0.00;0.00;0.00
71097;PMS7003;58754;47.622;-2.986;2023-01-16T12:28:33;0.00;0.00;0.00
71097;PMS7003;58754;47.622;-2.986;2023-01-16T12:45:42;0.00;0.00;0.00
71097;PMS7003;58754;47.622;-2.986;2023-01-16T12:48:18;1.75;0.00;0.00
71097;PMS7003;58754;47.622;-2.986;2023-01-16T13:00:16;2.00;0.00;0.00
71097;PMS7003;58754;47.622;-2.986;2023-01-16T13:05:12;0.00;0.00;0.00
71097;PMS7003;58754;47.622;-2.986;2023-01-16T13:10:38;2.00;0.00;0.00
71097;PMS7003;58754;47.622;-2.986;2023-01-16T13:13:26;0.75;0.00;0.00
71097;PMS7003;58754;47.622;-2.986;2023-01-16T13:15:56;0.50;0.00;0.00
71097;PMS7003;58754;47.622;-2.986;2023-01-16T13:18:50;0.00;0.00;0.00
71097;PMS7003;58754;47.622;-2.986;2023-01-16T13:21:39;0.75;0.00;0.00
71097;PMS7003;58754;47.622;-2.986;2023-01-16T13:25:17;1.00;0.00;0.00
71097;PMS7003;58754;47.622;-2.986;2023-01-16T13:27:22;0.00;0.00;0.00
71097;PMS7003;58754;47.622;-2.986;2023-01-16T13:30:15;0.00;0.00;0.00
71097;PMS7003;58754;47.622;-2.986;2023-01-16T13:32:50;0.50;0.00;0.00
71097;PMS7003;58754;47.622;-2.986;2023-01-16T13:35:21;1.00;0.00;0.00
71097;PMS7003;58754;47.622;-2.986;2023-01-16T13:43:30;0.00;0.00;0.00
71097;PMS7003;58754;47.622;-2.986;2023-01-16T13:46:19;1.00;0.00;0.00
71097;PMS7003;58754;47.622;-2.986;2023-01-16T13:48:49;0.25;0.00;0.00
71097;PMS7003;58754;47.622;-2.986;2023-01-16T13:51:17;0.00;0.00;0.00
71097;PMS7003;58754;47.622;-2.986;2023-01-16T13:53:46;0.50;0.00;0.00
71097;PMS7003;58754;47.622;-2.986;2023-01-16T13:56:18;0.00;0.00;0.00
71097;PMS7003;58754;47.622;-2.986;2023-01-16T13:58:47;0.00;0.00;0.00
71097;PMS7003;58754;47.622;-2.986;2023-01-16T14:01:32;0.00;0.00;0.00
71097;PMS7003;58754;47.622;-2.986;2023-01-16T14:04:47;1.25;0.00;0.00
71097;PMS7003;58754;47.622;-2.986;2023-01-16T14:06:56;2.00;0.00;0.00
71097;PMS7003;58754;47.622;-2.986;2023-01-16T14:09:57;0.00;0.00;0.00
71097;PMS7003;58754;47.622;-2.986;2023-01-16T14:12:40;0.75;0.00;0.00
71097;PMS7003;58754;47.622;-2.986;2023-01-16T14:15:20;0.00;0.00;0.00
71097;PMS7003;58754;47.622;-2.986;2023-01-16T14:18:40;0.00;0.00;0.00
71097;PMS7003;58754;47.622;-2.986;2023-01-16T14:21:25;2.75;0.00;0.00
71097;PMS7003;58754;47.622;-2.986;2023-01-16T14:23:54;0.00;0.00;0.00
71097;PMS7003;58754;47.622;-2.986;2023-01-16T14:31:51;0.00;0.00;0.00
71097;PMS7003;58754;47.622;-2.986;2023-01-16T14:34:34;0.00;0.00;0.00
71097;PMS7003;58754;47.622;-2.986;2023-01-16T14:37:15;0.00;0.00;0.00
71097;PMS7003;58754;47.622;-2.986;2023-01-16T14:39:59;0.50;0.00;0.00
71097;PMS7003;58754;47.622;-2.986;2023-01-16T14:45:39;0.00;0.00;0.00
71097;PMS7003;58754;47.622;-2.986;2023-01-16T14:54:04;1.00;0.00;0.00
71097;PMS7003;58754;47.622;-2.986;2023-01-16T14:57:03;11.00;4.75;2.00
71097;PMS7003;58754;47.622;-2.986;2023-01-16T14:59:34;11.00;4.50;3.00
71097;PMS7003;58754;47.622;-2.986;2023-01-16T15:02:07;16.00;5.25;2.25
71097;PMS7003;58754;47.622;-2.986;2023-01-16T15:07:25;19.50;7.75;2.25
71097;PMS7003;58754;47.622;-2.986;2023-01-16T15:09:59;21.25;10.75;4.00
71097;PMS7003;58754;47.622;-2.986;2023-01-16T15:12:35;13.25;7.00;3.00
71097;PMS7003;58754;47.622;-2.986;2023-01-16T15:15:03;3.25;2.00;1.75
71097;PMS7003;58754;47.622;-2.986;2023-01-16T15:17:34;10.25;6.25;3.50
71097;PMS7003;58754;47.622;-2.986;2023-01-16T15:20:26;8.50;6.50;3.50
71097;PMS7003;58754;47.622;-2.986;2023-01-16T15:23:20;14.25;5.75;2.50
71097;PMS7003;58754;47.622;-2.986;2023-01-16T15:30:52;8.75;5.00;2.25
71097;PMS7003;58754;47.622;-2.986;2023-01-16T15:33:28;7.50;4.00;2.00
71097;PMS7003;58754;47.622;-2.986;2023-01-16T15:42:03;6.75;3.25;3.00
71097;PMS7003;58754;47.622;-2.986;2023-01-16T15:44:56;7.00;3.75;2.75
71097;PMS7003;58754;47.622;-2.986;2023-01-16T15:50:52;8.25;3.50;1.00
71097;PMS7003;58754;47.622;-2.986;2023-01-16T15:53:19;2.25;0.50;0.00
71097;PMS7003;58754;47.622;-2.986;2023-01-16T15:55:47;10.25;5.00;3.00
71097;PMS7003;58754;47.622;-2.986;2023-01-16T15:58:19;8.50;4.00;2.00
71097;PMS7003;58754;47.622;-2.986;2023-01-16T16:00:58;3.25;1.50;0.50
71097;PMS7003;58754;47.622;-2.986;2023-01-16T16:03:30;4.25;1.50;0.75
71097;PMS7003;58754;47.622;-2.986;2023-01-16T16:06:04;7.00;1.00;0.75
71097;PMS7003;58754;47.622;-2.986;2023-01-16T16:08:35;3.25;0.25;0.25
71097;PMS7003;58754;47.622;-2.986;2023-01-16T16:11:04;5.50;1.50;1.00
71097;PMS7003;58754;47.622;-2.986;2023-01-16T16:13:50;5.25;1.50;1.00
71097;PMS7003;58754;47.622;-2.986;2023-01-16T16:16:18;7.75;1.75;1.75
71097;PMS7003;58754;47.622;-2.986;2023-01-16T16:19:05;2.00;2.00;1.00
71097;PMS7003;58754;47.622;-2.986;2023-01-16T16:21:42;4.75;2.00;1.00
71097;PMS7003;58754;47.622;-2.986;2023-01-16T16:24:33;4.50;2.25;1.00
71097;PMS7003;58754;47.622;-2.986;2023-01-16T16:27:05;6.75;1.75;1.00
71097;PMS7003;58754;47.622;-2.986;2023-01-16T16:29:32;6.75;2.75;1.50
71097;PMS7003;58754;47.622;-2.986;2023-01-16T16:32:00;6.75;2.00;1.25
71097;PMS7003;58754;47.622;-2.986;2023-01-16T16:34:28;7.50;3.50;2.00
71097;PMS7003;58754;47.622;-2.986;2023-01-16T16:36:58;4.00;1.50;1.00
71097;PMS7003;58754;47.622;-2.986;2023-01-16T16:41:59;4.25;2.25;1.25
71097;PMS7003;58754;47.622;-2.986;2023-01-16T16:45:03;5.00;3.25;2.00
71097;PMS7003;58754;47.622;-2.986;2023-01-16T16:47:36;5.75;2.50;1.25
71097;PMS7003;58754;47.622;-2.986;2023-01-16T16:53:05;4.25;2.00;1.00
71097;PMS7003;58754;47.622;-2.986;2023-01-16T16:55:40;4.25;2.00;1.00
71097;PMS7003;58754;47.622;-2.986;2023-01-16T16:58:14;2.00;1.00;0.00
71097;PMS7003;58754;47.622;-2.986;2023-01-16T17:00:45;3.25;1.00;1.00
71097;PMS7003;58754;47.622;-2.986;2023-01-16T17:03:16;4.75;1.75;1.00
71097;PMS7003;58754;47.622;-2.986;2023-01-16T17:05:47;3.75;2.00;1.50
71097;PMS7003;58754;47.622;-2.986;2023-01-16T17:08:23;4.25;2.00;1.00
71097;PMS7003;58754;47.622;-2.986;2023-01-16T17:10:54;2.00;1.00;1.00
71097;PMS7003;58754;47.622;-2.986;2023-01-16T17:13:21;2.75;2.50;1.00
71097;PMS7003;58754;47.622;-2.986;2023-01-16T17:15:53;2.75;2.00;1.00
71097;PMS7003;58754;47.622;-2.986;2023-01-16T17:18:23;2.00;1.50;0.75
71097;PMS7003;58754;47.622;-2.986;2023-01-16T17:20:51;2.25;0.75;0.25
71097;PMS7003;58754;47.622;-2.986;2023-01-16T17:23:19;3.75;1.25;1.00
71097;PMS7003;58754;47.622;-2.986;2023-01-16T17:25:46;3.50;1.25;1.00